createdAt,value
2019-03-21T00:00:49.368Z,9.27
2019-03-21T00:06:26.712Z,9.07
2019-03-21T00:12:05.571Z,8.90
2019-03-21T00:17:35.435Z,8.33
2019-03-21T00:22:43.170Z,9.03
2019-03-21T00:27:50.761Z,8.97
2019-03-21T00:33:18.209Z,8.43
2019-03-21T00:38:24.899Z,8.40
2019-03-21T00:43:30.643Z,7.90
2019-03-21T00:48:36.264Z,8.90
2019-03-21T00:53:41.964Z,8.80
2019-03-21T00:58:48.414Z,8.40
2019-03-21T01:04:28.953Z,8.57
2019-03-21T01:09:36.774Z,8.47
2019-03-21T01:14:45.265Z,8.13
2019-03-21T01:20:17.097Z,8.50
2019-03-21T01:25:39.808Z,8.80
2019-03-21T01:30:48.012Z,7.90
2019-03-21T01:36:15.891Z,8.37
2019-03-21T01:41:22.592Z,8.20
2019-03-21T01:46:29.276Z,8.03
2019-03-21T01:51:35.055Z,8.53
2019-03-21T01:56:41.774Z,8.37
2019-03-21T02:02:10.809Z,8.60
2019-03-21T02:07:17.367Z,8.67
2019-03-21T02:12:23.811Z,8.87
2019-03-21T02:17:30.654Z,9.40
2019-03-21T02:23:00.644Z,8.77
2019-03-21T02:28:07.373Z,8.00
2019-03-21T02:33:41.958Z,8.63
2019-03-21T02:38:48.528Z,8.80
2019-03-21T02:43:55.249Z,8.93
2019-03-21T02:49:01.944Z,8.20
2019-03-21T02:54:08.471Z,9.00
2019-03-21T02:59:15.081Z,8.70
2019-03-21T03:04:21.717Z,8.27
2019-03-21T03:09:28.045Z,9.10
2019-03-21T03:14:33.661Z,8.10
2019-03-21T03:20:14.035Z,8.63
2019-03-21T03:25:22.116Z,8.33
2019-03-21T03:31:01.496Z,7.77
2019-03-21T03:36:07.766Z,7.70
2019-03-21T03:41:35.804Z,7.77
2019-03-21T03:47:03.979Z,8.43
2019-03-21T03:52:10.840Z,8.00
2019-03-21T03:57:17.335Z,8.10
2019-03-21T04:02:24.030Z,7.97
2019-03-21T04:07:31.641Z,8.37
2019-03-21T04:12:37.352Z,7.50
2019-03-21T04:18:04.905Z,8.33
2019-03-21T04:23:12.474Z,7.57
2019-03-21T04:28:18.904Z,7.43
2019-03-21T04:33:26.802Z,7.40
2019-03-21T04:38:32.647Z,7.33
2019-03-21T04:43:38.188Z,8.93
2019-03-21T04:48:44.663Z,9.30
2019-03-21T04:53:53.410Z,8.80
2019-03-21T04:58:58.740Z,8.50
2019-03-21T05:04:26.706Z,8.30
2019-03-21T05:09:32.246Z,8.33
2019-03-21T05:14:38.848Z,7.50
2019-03-21T05:19:46.216Z,7.50
2019-03-21T05:24:52.344Z,7.40
2019-03-21T05:30:31.431Z,7.57
2019-03-21T05:35:38.100Z,8.33
2019-03-21T05:40:44.074Z,7.83
2019-03-21T05:45:51.230Z,8.17
2019-03-21T05:51:01.641Z,8.80
2019-03-21T05:56:08.736Z,8.07
2019-03-21T06:01:35.834Z,8.30
2019-03-21T06:07:25.797Z,8.10
2019-03-21T06:12:33.343Z,8.77
2019-03-21T06:17:41.723Z,9.07
2019-03-21T06:23:19.622Z,8.73
2019-03-21T06:28:26.672Z,9.33
2019-03-21T06:33:32.491Z,9.40
2019-03-21T06:38:42.279Z,10.33
2019-03-21T06:43:48.778Z,9.77
2019-03-21T06:49:07.859Z,9.37
2019-03-21T06:54:26.403Z,8.90
2019-03-21T06:59:32.159Z,9.40
2019-03-21T07:04:37.880Z,9.50
2019-03-21T07:10:16.625Z,9.13
2019-03-21T07:15:24.134Z,9.03
2019-03-21T07:20:29.628Z,10.23
2019-03-21T07:25:35.856Z,9.60
2019-03-21T07:30:43.343Z,9.67
2019-03-21T07:35:49.600Z,10.50
2019-03-21T07:40:56.162Z,10.40
2019-03-21T07:46:02.642Z,11.90
2019-03-21T07:51:09.365Z,10.60
2019-03-21T07:56:15.984Z,10.77
2019-03-21T08:01:22.618Z,12.10
2019-03-21T08:06:29.356Z,11.87
2019-03-21T08:11:35.211Z,12.23
2019-03-21T08:16:42.053Z,12.30
2019-03-21T08:21:48.774Z,11.57
2019-03-21T08:26:55.576Z,10.43
2019-03-21T08:32:02.361Z,9.80
2019-03-21T08:37:09.021Z,10.90
2019-03-21T08:42:15.504Z,11.57
2019-03-21T08:47:22.207Z,11.27
2019-03-21T08:52:28.565Z,11.57
2019-03-21T08:57:34.263Z,11.17
2019-03-21T09:02:41.142Z,11.00
2019-03-21T09:07:47.874Z,11.70
2019-03-21T09:12:54.633Z,10.73
2019-03-21T09:18:01.149Z,9.93
2019-03-21T09:23:07.302Z,10.90
2019-03-21T09:28:14.312Z,10.80
2019-03-21T09:33:22.323Z,11.53
2019-03-21T09:38:29.101Z,11.73
2019-03-21T09:43:34.975Z,10.53
2019-03-21T09:48:41.565Z,11.43
2019-03-21T09:53:48.484Z,10.17
2019-03-21T09:58:55.375Z,11.30
2019-03-21T10:04:02.088Z,11.83
2019-03-21T10:09:09.621Z,12.00
2019-03-21T10:14:15.850Z,10.77
2019-03-21T10:19:22.067Z,11.43
2019-03-21T10:24:28.252Z,12.40
2019-03-21T10:29:34.099Z,12.83
2019-03-21T10:34:39.847Z,12.87
2019-03-21T10:39:46.433Z,12.37
2019-03-21T10:44:53.124Z,11.67
2019-03-21T10:50:00.906Z,12.33
2019-03-21T10:55:08.099Z,12.30
2019-03-21T11:00:15.242Z,12.23
2019-03-21T11:05:23.228Z,12.77
2019-03-21T11:10:30.052Z,12.23
2019-03-21T11:15:36.117Z,11.63
2019-03-21T11:20:42.759Z,10.80
2019-03-21T11:25:49.580Z,10.27
2019-03-21T11:30:56.378Z,10.07
2019-03-21T11:36:03.156Z,10.83
2019-03-21T11:41:09.439Z,10.30
2019-03-21T11:46:15.692Z,8.30
2019-03-21T11:51:22.306Z,8.73
2019-03-21T11:56:34.055Z,10.13
2019-03-21T12:01:41.994Z,10.70
2019-03-21T12:06:48.584Z,10.40
2019-03-21T12:11:55.434Z,10.07
2019-03-21T12:17:02.308Z,10.67
2019-03-21T12:22:09.042Z,10.07
2019-03-21T12:27:15.760Z,9.47
2019-03-21T12:32:24.056Z,9.30
2019-03-21T12:37:29.791Z,9.87
2019-03-21T12:42:35.543Z,10.03
2019-03-21T12:47:41.652Z,10.00
2019-03-21T12:52:49.861Z,10.10
2019-03-21T12:57:56.467Z,10.07
2019-03-21T13:03:03.256Z,10.23
2019-03-21T13:08:09.907Z,10.57
2019-03-21T13:13:16.656Z,10.53
2019-03-21T13:18:23.148Z,10.63
2019-03-21T13:23:29.875Z,9.97
2019-03-21T13:28:35.925Z,10.80
2019-03-21T13:33:41.638Z,11.63
2019-03-21T13:38:47.647Z,10.60
2019-03-21T13:43:54.327Z,10.93
2019-03-21T13:49:00.875Z,9.43
2019-03-21T13:54:08.746Z,10.17
2019-03-21T13:59:15.423Z,10.43
2019-03-21T14:04:21.864Z,11.00
2019-03-21T14:09:29.833Z,10.57
2019-03-21T14:14:37.492Z,11.17
2019-03-21T14:19:45.459Z,10.83
2019-03-21T14:24:51.994Z,10.73
2019-03-21T14:30:01.461Z,11.20
2019-03-21T14:35:08.696Z,11.20
2019-03-21T14:40:16.827Z,11.27
2019-03-21T14:45:23.355Z,11.50
2019-03-21T14:50:29.667Z,11.27
2019-03-21T14:55:46.868Z,9.77
2019-03-21T15:00:43.855Z,10.73
2019-03-21T15:05:52.276Z,9.90
2019-03-21T15:10:58.902Z,9.70
2019-03-21T15:16:05.673Z,10.00
2019-03-21T15:21:12.682Z,10.17
2019-03-21T15:26:19.354Z,9.57
2019-03-21T15:31:26.098Z,8.80
2019-03-21T15:36:31.941Z,9.77
2019-03-21T15:41:39.026Z,13.63
2019-03-21T15:46:45.606Z,10.10
2019-03-21T15:51:52.281Z,11.60
2019-03-21T15:56:58.634Z,8.77
2019-03-21T16:02:05.279Z,8.03
2019-03-21T16:07:11.626Z,9.93
2019-03-21T16:12:18.392Z,8.73
2019-03-21T16:17:25.080Z,9.17
2019-03-21T16:22:31.113Z,16.40
2019-03-21T16:27:38.541Z,9.50
2019-03-21T16:32:45.522Z,9.23
2019-03-21T16:37:52.315Z,10.40
2019-03-21T16:42:59.098Z,11.80
2019-03-21T16:48:09.243Z,20.73
2019-03-21T16:53:15.159Z,11.17
2019-03-21T16:58:21.474Z,11.47
2019-03-21T17:03:28.439Z,22.67
2019-03-21T17:08:34.301Z,11.30
2019-03-21T17:13:41.216Z,10.73
2019-03-21T17:18:48.158Z,11.87
2019-03-21T17:23:54.872Z,11.53
2019-03-21T17:29:01.709Z,10.47
2019-03-21T17:34:08.541Z,11.77
2019-03-21T17:39:15.380Z,11.33
2019-03-21T17:44:22.070Z,12.37
2019-03-21T17:49:30.035Z,12.30
2019-03-21T17:54:41.347Z,11.07
2019-03-21T17:59:45.293Z,12.17
2019-03-21T18:04:52.659Z,11.43
2019-03-21T18:09:59.554Z,11.47
2019-03-21T18:15:08.076Z,12.20
2019-03-21T18:20:14.882Z,12.83
2019-03-21T18:25:21.761Z,13.13
2019-03-21T18:30:28.656Z,14.63
2019-03-21T18:35:34.656Z,14.67
2019-03-21T18:41:00.035Z,15.83
2019-03-21T18:46:08.130Z,18.07
2019-03-21T18:51:14.931Z,18.33
2019-03-21T18:56:22.352Z,21.13
2019-03-21T19:01:29.109Z,21.47
2019-03-21T19:06:34.948Z,22.53
2019-03-21T19:11:41.175Z,24.73
2019-03-21T19:16:47.842Z,24.73
2019-03-21T19:21:54.622Z,25.67
2019-03-21T19:27:01.543Z,24.27
2019-03-21T19:32:08.413Z,23.20
2019-03-21T19:37:15.218Z,23.47
2019-03-21T19:42:22.131Z,21.77
2019-03-21T19:47:30.713Z,21.53
2019-03-21T19:52:39.590Z,22.00
2019-03-21T19:57:46.636Z,22.00
2019-03-21T20:02:53.593Z,20.90
2019-03-21T20:08:00.553Z,20.70
2019-03-21T20:13:07.068Z,22.47
2019-03-21T20:18:13.744Z,20.63
2019-03-21T20:23:20.307Z,21.33
2019-03-21T20:28:26.872Z,22.40
2019-03-21T20:33:32.753Z,25.50
2019-03-21T20:38:40.509Z,25.50
2019-03-21T20:43:49.626Z,23.17
2019-03-21T20:48:55.087Z,23.27
2019-03-21T20:54:02.950Z,23.23
2019-03-21T20:59:09.932Z,23.20
2019-03-21T21:04:16.651Z,23.30
2019-03-21T21:09:44.475Z,22.53
2019-03-21T21:14:51.467Z,22.47
2019-03-21T21:19:58.390Z,21.57
2019-03-21T21:25:07.625Z,24.07
2019-03-21T21:30:37.486Z,22.47
2019-03-21T21:35:47.043Z,23.67
2019-03-21T21:40:54.100Z,24.43
2019-03-21T21:46:01.002Z,23.23
2019-03-21T21:51:07.893Z,24.30
2019-03-21T21:56:17.760Z,25.07
2019-03-21T22:01:23.530Z,24.70
2019-03-21T22:06:30.333Z,24.50
2019-03-21T22:11:36.201Z,24.50
2019-03-21T22:16:42.709Z,25.90
2019-03-21T22:21:49.185Z,24.20
2019-03-21T22:26:55.548Z,24.23
2019-03-21T22:32:04.398Z,24.70
2019-03-21T22:37:11.198Z,23.73
2019-03-21T22:42:17.990Z,23.60
2019-03-21T22:47:24.826Z,24.30
2019-03-21T22:52:30.705Z,22.57
2019-03-21T22:57:37.895Z,24.53
2019-03-21T23:02:44.763Z,23.83
2019-03-21T23:08:13.030Z,23.37
2019-03-21T23:13:19.839Z,22.70
2019-03-21T23:18:26.620Z,22.97
2019-03-21T23:23:32.583Z,22.43
2019-03-21T23:28:39.375Z,22.40
2019-03-21T23:33:45.822Z,21.40
2019-03-21T23:38:52.308Z,21.43
2019-03-21T23:43:58.752Z,23.30
2019-03-21T23:49:05.501Z,23.00
2019-03-21T23:54:12.434Z,22.47
2019-03-21T23:59:19.303Z,21.13
